Time;durP1;ratioP1;P1;durP2;ratioP2;P2;SDS_P1;SDS_P2;PMS_P1;PMS_P2;Temp;Humidity;BMP_temperature;BMP_pressure;BME280_temperature;BME280_humidity;BME280_pressure;Samples;Min_cycle;Max_cycle;Signal;HPM_P1;HPM_P2
2022/07/28 00:00:03;;;;;;;13.13;8.33;;;25.80;65.50;;;26.41;50.29;94845.69;5045299;28;20998;-58
2022/07/28 00:02:32;;;;;;;8.10;7.30;;;25.70;65.70;;;26.36;51.10;94853.69;5045757;28;20471;-63
2022/07/28 00:04:59;;;;;;;13.20;7.60;;;25.70;65.70;;;26.32;50.89;94849.03;5045687;28;20513;-59
2022/07/28 00:07:26;;;;;;;9.47;7.57;;;25.60;66.30;;;26.27;51.60;94863.22;5045366;28;20524;-58
2022/07/28 00:09:53;;;;;;;7.63;6.50;;;25.60;67.10;;;26.22;52.02;94866.63;5045987;28;20455;-62
2022/07/28 00:12:21;;;;;;;10.00;6.60;;;25.50;67.50;;;26.19;52.24;94863.59;5045907;28;20467;-58
2022/07/28 00:14:48;;;;;;;9.50;7.53;;;25.50;68.20;;;26.13;52.61;94854.59;5045393;28;20495;-63
2022/07/28 00:17:15;;;;;;;12.57;7.77;;;25.50;68.50;;;26.08;53.11;94851.78;5041204;28;20475;-62
2022/07/28 00:19:44;;;;;;;8.50;7.80;;;25.40;69.10;;;26.04;53.58;94851.44;5043101;28;20455;-62
2022/07/28 00:22:11;;;;;;;7.60;6.90;;;25.40;69.40;;;25.98;53.64;94878.50;5044995;28;20548;-60
2022/07/28 00:24:38;;;;;;;8.27;7.47;;;25.40;70.20;;;25.89;54.14;94880.72;5044909;28;20971;-59
2022/07/28 00:27:06;;;;;;;13.13;7.50;;;25.30;70.90;;;25.81;54.24;94873.81;5045622;28;20475;-59
2022/07/28 00:29:33;;;;;;;9.13;8.27;;;25.20;71.60;;;25.74;55.74;94875.81;5042701;28;20952;-62
2022/07/28 00:32:00;;;;;;;13.47;9.13;;;25.10;74.00;;;25.64;56.26;94848.63;5045137;28;20475;-63
2022/07/28 00:34:28;;;;;;;10.53;8.43;;;25.00;75.00;;;25.53;56.14;94817.94;5045504;28;20483;-63
2022/07/28 00:36:56;;;;;;;9.20;8.40;;;24.90;74.80;;;25.43;56.66;94806.97;5045272;28;20536;-59
2022/07/28 00:39:23;;;;;;;10.83;8.60;;;24.80;76.10;;;25.36;57.35;94810.59;5045216;28;20509;-59
2022/07/28 00:41:51;;;;;;;10.20;8.50;;;24.80;76.40;;;25.27;57.77;94817.34;5045088;28;20571;-57
2022/07/28 00:44:18;;;;;;;9.90;8.77;;;24.70;77.40;;;25.21;57.80;94813.69;5042824;28;20453;-58
2022/07/28 00:46:45;;;;;;;9.23;7.53;;;24.60;78.10;;;25.13;58.82;94813.22;5045038;28;20479;-62
2022/07/28 00:49:14;;;;;;;8.63;7.70;;;24.50;79.10;;;25.03;59.33;94819.97;5045222;28;20452;-62
2022/07/28 00:51:41;;;;;;;9.97;8.67;;;24.40;80.50;;;24.92;60.19;94826.16;5044615;28;20529;-60
2022/07/28 00:54:10;;;;;;;8.97;8.03;;;24.30;82.70;;;24.81;60.26;94808.94;5047869;28;20498;-59
2022/07/28 00:56:37;;;;;;;10.33;8.13;;;24.20;82.80;;;24.72;61.40;94814.91;5048821;28;20928;-59
2022/07/28 00:59:04;;;;;;;9.03;7.43;;;24.10;83.80;;;24.64;61.43;94837.56;5048696;28;20459;-61
2022/07/28 01:01:31;;;;;;;9.60;7.63;;;24.00;84.20;;;24.56;61.77;94819.84;5048330;28;20521;-58
2022/07/28 01:04:01;;;;;;;8.97;7.30;;;24.00;86.40;;;24.47;61.68;94834.66;5045785;28;20998;-63
2022/07/28 01:06:52;;;;;;;11.37;8.27;;;23.90;86.50;;;24.37;64.06;94831.69;5048257;28;20497;-58
2022/07/28 01:09:31;;;;;;;9.07;8.23;;;23.80;88.70;;;24.30;63.71;94840.66;5046793;28;20440;-60
2022/07/28 01:12:01;;;;;;;9.00;8.10;;;23.70;88.60;;;24.22;62.84;94851.72;5047905;28;21085;-58
2022/07/28 01:14:34;;;;;;;8.73;7.93;;;23.70;89.20;;;24.12;62.74;94849.56;5048021;28;21061;-58
2022/07/28 01:17:09;;;;;;;9.63;7.43;;;23.60;88.60;;;24.04;63.75;94855.22;5046964;28;20471;-58
2022/07/28 01:19:41;;;;;;;10.43;8.53;;;23.50;89.90;;;23.94;63.90;94858.44;5047333;28;20534;-61
2022/07/28 01:22:10;;;;;;;8.40;7.50;;;23.30;90.10;;;23.81;64.50;94855.84;5047825;28;20468;-63
2022/07/28 01:24:48;;;;;;;8.63;7.83;;;23.30;90.60;;;23.69;63.88;94852.28;5047813;28;20621;-58
2022/07/28 01:27:31;;;;;;;9.27;7.87;;;23.20;90.20;;;23.51;64.41;94837.78;5044652;28;20463;-59
2022/07/28 01:30:05;;;;;;;8.10;7.40;;;23.00;90.70;;;23.38;65.14;94840.59;5048083;28;20821;-62
2022/07/28 01:32:38;;;;;;;8.70;7.80;;;22.90;91.00;;;23.27;65.46;94837.59;5045272;28;20541;-62
2022/07/28 01:35:11;;;;;;;13.10;9.00;;;22.80;91.90;;;23.26;65.62;94845.84;5048193;28;20574;-58
2022/07/28 01:37:44;;;;;;;9.90;8.30;;;22.70;92.70;;;23.26;66.91;94849.34;5045145;28;20909;-57
2022/07/28 01:40:13;;;;;;;9.50;8.60;;;22.70;93.70;;;23.25;66.47;94838.84;5048195;28;20448;-62
2022/07/28 01:42:44;;;;;;;9.30;8.47;;;22.70;93.70;;;23.27;67.46;94834.91;5047840;28;20472;-59
2022/07/28 01:45:12;;;;;;;11.60;9.37;;;22.70;94.50;;;23.31;67.38;94837.16;5047090;28;20796;-63
2022/07/28 01:47:41;;;;;;;10.70;9.47;;;22.70;94.90;;;23.35;66.78;94831.13;5047671;28;20897;-62
2022/07/28 01:50:09;;;;;;;13.63;8.37;;;22.70;94.90;;;23.36;66.67;94838.13;5047720;28;20463;-63
2022/07/28 01:52:36;;;;;;;14.77;9.30;;;22.80;95.20;;;23.36;67.17;94832.78;5047228;28;20541;-59
2022/07/28 01:55:04;;;;;;;12.53;9.67;;;22.70;95.40;;;23.37;66.98;94834.41;5047824;28;20817;-62
2022/07/28 01:57:32;;;;;;;15.33;9.70;;;22.80;95.70;;;23.41;67.24;94834.78;5047033;28;20855;-61
2022/07/28 01:59:59;;;;;;;9.80;8.90;;;22.80;95.90;;;23.41;67.46;94838.28;5047497;28;20451;-62
2022/07/28 02:02:27;;;;;;;14.57;8.90;;;22.80;96.30;;;23.42;67.55;94839.94;5043680;28;20844;-58
2022/07/28 02:04:57;;;;;;;10.67;8.20;;;22.80;96.30;;;23.44;66.77;94845.09;5046333;28;20472;-62
2022/07/28 02:07:24;;;;;;;12.10;9.00;;;22.90;96.40;;;;;;5046733;28;20533;-61
2022/07/28 02:09:51;;;;;;;8.80;7.87;;;22.90;96.60;;;23.48;67.09;94846.28;5047238;28;20509;-58
2022/07/28 02:12:18;;;;;;;9.63;8.60;;;22.90;96.40;;;23.48;67.00;94845.47;5047433;28;20548;-57
2022/07/28 02:14:46;;;;;;;12.80;8.23;;;22.90;96.80;;;;;;5046997;28;20510;-62
2022/07/28 02:17:17;;;;;;;10.40;9.30;;;22.90;96.70;;;23.45;66.82;94846.72;5045879;28;20911;-62
2022/07/28 02:19:45;;;;;;;8.47;7.67;;;22.90;96.60;;;23.43;66.29;94843.44;5044093;28;20517;-59
2022/07/28 02:22:14;;;;;;;10.33;8.80;;;22.80;96.60;;;23.42;66.89;94855.22;5046940;28;20468;-58
2022/07/28 02:24:41;;;;;;;9.27;8.50;;;22.80;96.90;;;23.39;66.97;94864.53;5046969;28;20839;-59
2022/07/28 02:27:11;;;;;;;9.20;8.30;;;22.80;97.00;;;23.38;66.94;94865.56;5047089;28;20464;-60
2022/07/28 02:29:43;;;;;;;8.87;7.47;;;22.80;97.00;;;23.36;67.20;94858.78;5045306;28;20455;-57
2022/07/28 02:32:14;;;;;;;8.67;7.67;;;22.80;97.20;;;23.35;67.40;94865.19;5046867;28;20843;-57
2022/07/28 02:34:42;;;;;;;10.13;8.17;;;22.80;97.40;;;23.33;67.19;94860.06;5047288;28;20483;-63
2022/07/28 02:37:09;;;;;;;7.73;7.03;;;22.70;97.50;;;23.32;67.32;94863.78;5046988;28;20476;-62
2022/07/28 02:39:43;;;;;;;10.20;8.27;;;22.70;97.70;;;23.28;66.82;94862.56;5043054;28;20447;-60
2022/07/28 02:42:14;;;;;;;10.50;7.00;;;22.70;97.50;;;23.24;66.69;94862.19;5046733;28;20521;-59
2022/07/28 02:44:43;;;;;;;9.57;7.77;;;22.70;97.40;;;23.24;67.28;94864.88;5045443;28;20990;-59
2022/07/28 02:47:12;;;;;;;10.17;7.77;;;22.70;97.70;;;23.25;67.56;94863.84;5046691;28;20472;-58
2022/07/28 02:49:40;;;;;;;11.93;8.77;;;22.70;97.90;;;23.27;66.92;94860.94;5046005;28;20936;-62
2022/07/28 02:52:07;;;;;;;9.27;8.47;;;22.70;97.90;;;23.30;66.94;94871.22;5046347;28;20475;-63
2022/07/28 02:54:35;;;;;;;13.30;9.07;;;22.70;97.90;;;23.32;67.24;94869.13;5046807;28;20514;-62
2022/07/28 02:57:04;;;;;;;12.00;8.73;;;22.70;97.90;;;23.36;66.65;94869.50;5046288;28;20988;-58
2022/07/28 02:59:31;;;;;;;11.37;10.17;;;22.70;97.90;;;23.38;66.78;94864.75;5047070;28;20566;-58
2022/07/28 03:01:58;;;;;;;9.93;8.93;;;22.80;98.30;;;23.40;66.93;94858.13;5046407;28;20501;-59
2022/07/28 03:07:06;;;;;;;15.50;10.83;;;22.80;97.90;;;23.42;66.52;94852.53;5046665;28;20577;-62
2022/07/28 03:09:38;;;;;;;10.57;9.57;;;22.80;97.90;;;23.45;66.34;94852.09;5046064;28;20456;-58
2022/07/28 03:12:07;;;;;;;11.60;8.97;;;22.80;97.90;;;23.42;66.73;94847.16;5043236;28;20480;-62
2022/07/28 03:14:35;;;;;;;15.23;10.30;;;22.80;98.20;;;23.40;66.62;94835.81;5046199;28;20561;-62
2022/07/28 03:17:02;;;;;;;17.03;10.87;;;22.80;98.30;;;23.39;66.27;94831.50;5045138;28;20537;-59
2022/07/28 03:19:29;;;;;;;12.07;9.63;;;22.80;98.30;;;23.38;67.02;94830.69;5045050;28;20475;-58
2022/07/28 03:21:56;;;;;;;12.53;10.27;;;22.80;98.50;;;23.39;66.71;94820.75;5045435;28;20480;-67
2022/07/28 03:24:25;;;;;;;13.10;10.20;;;22.80;98.50;;;23.38;67.66;94828.00;5044487;28;20498;-59
2022/07/28 03:26:58;;;;;;;16.73;10.20;;;22.80;99.10;;;23.37;67.28;94825.53;5046152;28;20504;-63
2022/07/28 03:29:27;;;;;;;18.50;11.50;;;22.80;98.50;;;23.32;66.82;94822.69;5045360;28;20440;-59
2022/07/28 03:31:54;;;;;;;13.10;11.63;;;22.70;98.50;;;23.25;66.81;94814.69;5044642;28;20977;-59
2022/07/28 03:34:21;;;;;;;10.90;9.80;;;22.70;98.60;;;23.15;68.11;94807.16;5041939;28;20483;-59
2022/07/28 03:36:54;;;;;;;12.63;10.23;;;22.60;99.20;;;23.01;67.98;94803.72;5045476;28;20545;-61
2022/07/28 03:39:21;;;;;;;13.13;10.43;;;22.50;99.00;;;22.85;67.83;94804.25;5045684;28;20448;-59
2022/07/28 03:41:48;;;;;;;13.10;11.63;;;22.40;99.30;;;22.73;68.80;94796.09;5046039;28;20587;-62
2022/07/28 03:44:16;;;;;;;17.37;12.20;;;22.30;99.80;;;22.66;69.61;94792.63;5044512;28;20933;-60
2022/07/28 03:46:45;;;;;;;11.53;10.43;;;22.20;99.90;;;22.58;70.99;94801.75;5045573;28;20530;-58
2022/07/28 03:49:13;;;;;;;11.97;10.77;;;22.10;99.90;;;22.45;69.78;94800.00;5045679;28;20456;-59
2022/07/28 03:51:40;;;;;;;12.33;11.03;;;22.00;99.90;;;22.34;70.71;94819.44;5045809;28;20467;-58
2022/07/28 03:54:07;;;;;;;13.30;10.90;;;21.90;99.90;;;22.29;70.54;94824.56;5045172;28;20525;-60
2022/07/28 03:56:34;;;;;;;12.23;11.03;;;21.80;99.90;;;22.25;71.49;94834.91;5046446;28;20629;-62
2022/07/28 03:59:02;;;;;;;12.43;10.50;;;21.80;99.90;;;22.28;71.56;94852.44;5045515;28;20459;-59
2022/07/28 04:01:29;;;;;;;13.00;10.07;;;21.70;99.90;;;22.35;71.45;94869.31;5044999;28;20475;-58
2022/07/28 04:03:57;;;;;;;12.70;10.57;;;21.80;99.90;;;22.41;71.51;94870.31;5045128;28;20477;-59
2022/07/28 04:06:24;;;;;;;12.90;10.73;;;21.80;99.90;;;22.47;71.25;94858.75;5041966;28;20612;-60
2022/07/28 04:08:52;;;;;;;12.70;11.47;;;21.90;99.90;;;22.55;71.45;94864.66;5043184;28;20452;-59
2022/07/28 04:11:19;;;;;;;15.53;11.37;;;22.00;99.90;;;22.66;70.96;94875.75;5045382;28;21022;-64
2022/07/28 04:13:46;;;;;;;11.10;10.10;;;22.00;99.90;;;22.71;70.74;94873.22;5045642;28;20456;-60
2022/07/28 04:16:13;;;;;;;25.80;11.40;;;22.10;99.90;;;22.79;71.24;94873.00;5044498;28;20502;-63
2022/07/28 04:18:41;;;;;;;11.83;10.63;;;22.20;99.90;;;22.87;70.81;94856.63;5040869;28;20456;-62
2022/07/28 04:21:09;;;;;;;15.80;10.57;;;22.30;99.90;;;22.92;70.42;94859.47;5045349;28;20557;-60
2022/07/28 04:23:36;;;;;;;12.87;10.97;;;22.30;99.90;;;22.98;70.53;94867.72;5045444;28;20456;-63
2022/07/28 04:26:04;;;;;;;11.37;10.17;;;22.40;99.90;;;23.05;70.16;94871.16;5045861;28;21033;-63
2022/07/28 04:28:31;;;;;;;14.13;11.13;;;22.50;99.90;;;23.13;70.27;94868.25;5048042;28;20697;-58
2022/07/28 04:30:58;;;;;;;18.67;11.37;;;22.50;99.90;;;23.18;70.25;94863.06;5049191;28;20471;-58
2022/07/28 04:33:25;;;;;;;14.03;11.20;;;22.60;99.90;;;23.19;69.86;94859.34;5048964;28;20556;-63
2022/07/28 04:35:53;;;;;;;17.37;11.50;;;22.60;99.90;;;23.20;69.62;94858.28;5048600;28;20877;-59
2022/07/28 04:38:21;;;;;;;18.33;12.07;;;22.60;99.90;;;23.17;70.06;94841.81;5044909;28;20447;-61
2022/07/28 04:40:49;;;;;;;17.23;11.07;;;22.60;99.90;;;23.14;69.91;94851.09;5046618;28;21113;-62
2022/07/28 04:43:16;;;;;;;16.07;12.17;;;22.60;99.90;;;23.13;70.03;94860.22;5048978;28;21037;-61
2022/07/28 04:45:45;;;;;;;16.60;11.57;;;22.60;99.90;;;23.12;70.33;94863.13;5047022;28;20458;-58
2022/07/28 04:48:12;;;;;;;23.23;12.77;;;22.60;99.90;;;23.11;70.54;94875.69;5047362;28;20701;-61
2022/07/28 04:50:40;;;;;;;17.90;13.00;;;22.60;99.90;;;23.10;69.97;94884.78;5048439;28;20513;-62
2022/07/28 04:53:08;;;;;;;19.83;13.37;;;22.50;99.90;;;23.08;70.45;94889.50;5048430;28;20459;-58
2022/07/28 04:55:37;;;;;;;18.93;13.20;;;22.60;99.90;;;23.08;70.17;94885.00;5048670;28;20520;-62
2022/07/28 04:58:06;;;;;;;21.47;12.57;;;22.50;99.90;;;23.09;70.41;94880.47;5048904;28;20447;-62
2022/07/28 05:00:33;;;;;;;19.90;11.77;;;22.50;99.90;;;23.10;70.53;94882.13;5047789;28;20451;-59
2022/07/28 05:03:01;;;;;;;15.40;11.93;;;22.60;99.90;;;23.10;70.55;94879.44;5045568;28;20956;-60
2022/07/28 05:05:28;;;;;;;18.23;12.43;;;22.50;99.90;;;23.07;69.71;94859.19;5046558;28;20900;-59
2022/07/28 05:07:56;;;;;;;19.20;12.13;;;22.50;99.90;;;23.05;69.89;94858.59;5046741;28;20756;-59
2022/07/28 05:10:23;;;;;;;18.37;12.73;;;22.50;99.90;;;23.07;70.14;94851.13;5046477;28;20459;-59
2022/07/28 05:12:53;;;;;;;13.17;10.80;;;22.50;99.90;;;23.12;70.71;94857.75;5046637;28;20876;-59
2022/07/28 05:15:20;;;;;;;17.77;12.20;;;22.50;99.90;;;23.15;70.32;94868.03;5042279;28;20479;-58
2022/07/28 05:17:47;;;;;;;18.77;11.80;;;22.60;99.90;;;23.15;70.53;94868.84;5047597;28;20472;-63
2022/07/28 05:20:16;;;;;;;15.03;11.90;;;22.60;99.90;;;23.16;70.35;94875.88;5045478;28;20513;-59
2022/07/28 05:22:44;;;;;;;12.70;11.40;;;22.60;99.90;;;23.11;69.72;94889.09;5048049;28;20463;-61
2022/07/28 05:25:18;;;;;;;13.87;10.93;;;22.60;99.90;;;23.09;70.38;94899.25;5048152;28;20459;-60
2022/07/28 05:27:46;;;;;;;19.27;11.50;;;22.50;99.90;;;23.11;70.27;94893.66;5044025;28;20483;-62
2022/07/28 05:30:15;;;;;;;23.07;12.80;;;22.50;99.90;;;23.16;70.11;94886.59;5047916;28;20447;-58
2022/07/28 05:32:44;;;;;;;20.33;11.47;;;22.60;99.90;;;23.21;70.50;94878.72;5046791;28;20468;-61
2022/07/28 05:35:11;;;;;;;13.13;11.47;;;22.60;99.90;;;23.29;69.69;94874.13;5047701;28;20492;-60
2022/07/28 05:37:38;;;;;;;14.83;11.97;;;22.70;99.90;;;23.35;69.98;94874.06;5047724;28;20858;-60
2022/07/28 05:40:12;;;;;;;16.43;12.67;;;22.70;99.90;;;23.38;69.24;94888.91;5047667;28;20456;-61
2022/07/28 05:42:39;;;;;;;16.93;12.13;;;22.80;99.90;;;23.42;69.27;94890.09;5045158;28;20472;-59
2022/07/28 05:45:09;;;;;;;15.73;12.47;;;22.80;99.90;;;23.50;69.68;94891.69;5045308;28;20505;-62
2022/07/28 05:47:44;;;;;;;14.93;11.53;;;22.90;99.90;;;23.59;69.35;94874.25;5047247;28;20475;-58
2022/07/28 05:50:12;;;;;;;14.07;12.47;;;23.00;99.90;;;23.68;68.69;94877.50;5043628;28;20459;-62
2022/07/28 05:52:39;;;;;;;15.80;12.00;;;23.10;99.90;;;23.70;68.53;94886.13;5044253;28;20529;-60
2022/07/28 05:55:07;;;;;;;21.30;13.53;;;23.10;99.90;;;23.72;67.74;94882.19;5047000;28;20867;-62
2022/07/28 05:57:34;;;;;;;20.10;13.27;;;23.10;99.90;;;23.70;68.09;94880.78;5046965;28;20502;-58
2022/07/28 06:00:02;;;;;;;23.17;15.30;;;23.10;99.90;;;23.74;68.48;94873.94;5046913;28;20448;-62
2022/07/28 06:02:29;;;;;;;14.27;12.20;;;23.10;99.90;;;23.78;67.54;94878.63;5045579;28;20499;-61
2022/07/28 06:04:58;;;;;;;22.40;13.73;;;23.20;99.90;;;23.79;67.40;94879.44;5047112;28;20834;-58
2022/07/28 06:07:26;;;;;;;19.50;13.30;;;23.20;99.90;;;23.78;67.42;94869.72;5046528;28;20540;-61
2022/07/28 06:09:53;;;;;;;15.80;13.10;;;23.20;99.90;;;23.79;67.18;94874.06;5047024;28;20463;-62
2022/07/28 06:12:21;;;;;;;20.97;13.17;;;23.20;99.90;;;23.80;67.26;94878.41;5045970;28;20472;-58
2022/07/28 06:14:48;;;;;;;19.00;14.80;;;23.20;99.90;;;23.88;67.94;94878.13;5045991;28;20448;-58
2022/07/28 06:17:15;;;;;;;21.07;13.80;;;23.30;99.90;;;23.96;67.80;94874.34;5045873;28;20479;-59
2022/07/28 06:19:43;;;;;;;19.60;13.47;;;23.30;99.90;;;24.04;67.97;94875.91;5046745;28;20509;-58
2022/07/28 06:22:14;;;;;;;24.37;14.10;;;23.40;99.90;;;24.16;67.71;94863.38;5046245;28;20895;-62
2022/07/28 06:24:41;;;;;;;16.80;12.40;;;23.50;99.90;;;24.30;66.85;94862.16;5046875;28;21298;-62
2022/07/28 06:27:08;;;;;;;23.30;13.50;;;23.60;99.90;;;24.44;66.65;94870.06;5046752;28;20545;-62
2022/07/28 06:29:36;;;;;;;28.80;13.70;;;23.80;99.90;;;24.59;65.66;94880.47;5046375;28;20482;-63
2022/07/28 06:32:03;;;;;;;17.70;13.10;;;23.90;99.90;;;24.73;65.19;94889.97;5045162;28;20547;-62
2022/07/28 06:34:30;;;;;;;16.60;12.37;;;24.10;99.90;;;24.85;64.51;94880.09;5045812;28;20448;-60
2022/07/28 06:36:58;;;;;;;14.07;12.57;;;24.20;99.90;;;24.98;64.33;94881.75;5045785;28;20487;-58
2022/07/28 06:39:26;;;;;;;16.43;13.13;;;24.30;99.90;;;25.11;64.40;94886.13;5046189;28;20505;-59
2022/07/28 06:41:54;;;;;;;15.50;12.20;;;24.50;99.90;;;25.26;64.12;94887.56;5045856;28;20471;-63
2022/07/28 06:44:21;;;;;;;20.00;13.83;;;24.60;99.70;;;25.40;63.74;94883.63;5044389;28;20447;-62
2022/07/28 06:46:49;;;;;;;17.90;13.60;;;24.80;99.50;;;25.55;63.31;94881.31;5046011;28;20478;-62
2022/07/28 06:49:16;;;;;;;15.27;12.30;;;24.90;99.10;;;25.69;62.24;94892.69;5045998;28;20443;-62
2022/07/28 06:51:43;;;;;;;17.40;13.57;;;25.00;98.70;;;25.84;62.45;94888.69;5045496;28;20540;-59
2022/07/28 06:54:10;;;;;;;20.00;14.20;;;25.20;98.90;;;25.99;61.98;94880.97;5045711;28;20462;-62
2022/07/28 06:56:39;;;;;;;16.20;13.17;;;25.30;98.20;;;26.12;61.36;94888.00;5046185;28;20499;-61
2022/07/28 06:59:06;;;;;;;17.03;12.30;;;25.40;97.90;;;26.25;59.99;94895.00;5045909;28;20462;-59
2022/07/28 07:01:34;;;;;;;15.27;13.50;;;25.60;96.80;;;26.37;60.21;94879.63;5045112;28;20550;-64
2022/07/28 07:04:01;;;;;;;18.40;14.37;;;25.70;96.70;;;26.53;60.07;94888.84;5045327;28;20455;-62
2022/07/28 07:06:28;;;;;;;16.37;13.20;;;25.90;96.80;;;26.73;60.18;94883.03;5045945;28;20916;-61
2022/07/28 07:08:56;;;;;;;17.57;13.57;;;26.00;96.60;;;26.99;59.69;94878.13;5045787;28;20455;-62
2022/07/28 07:11:23;;;;;;;16.17;13.73;;;26.30;96.70;;;27.25;59.11;94889.38;5045823;28;20471;-58
2022/07/28 07:13:53;;;;;;;15.23;13.70;;;26.50;96.20;;;27.43;58.42;94872.94;5044590;28;20948;-60
2022/07/28 07:16:20;;;;;;;17.47;14.30;;;26.70;95.70;;;27.57;57.67;94880.75;5045215;28;20851;-62
2022/07/28 07:18:51;;;;;;;14.37;12.97;;;26.90;94.90;;;27.68;57.88;94886.03;5045161;28;20482;-61
2022/07/28 07:21:18;;;;;;;17.00;13.20;;;27.00;94.80;;;27.82;57.51;94881.09;5045450;28;20516;-63
2022/07/28 07:23:46;;;;;;;17.40;13.50;;;27.20;94.60;;;27.96;56.79;94880.81;5045975;28;20450;-62
2022/07/28 07:26:13;;;;;;;18.60;13.70;;;27.30;94.30;;;28.02;55.97;94891.44;5045499;28;20554;-62
2022/07/28 07:28:41;;;;;;;19.37;14.97;;;27.40;93.50;;;28.05;56.26;94890.13;5045409;28;20455;-61
2022/07/28 07:31:09;;;;;;;16.53;14.10;;;27.40;93.30;;;28.03;56.08;94886.88;5045171;28;20487;-61
2022/07/28 07:33:37;;;;;;;15.97;14.27;;;27.40;93.30;;;28.07;55.96;94891.53;5044973;28;20786;-58
2022/07/28 07:36:05;;;;;;;26.67;13.53;;;27.50;93.30;;;28.15;56.04;94898.38;5045371;28;20495;-62
2022/07/28 07:38:33;;;;;;;16.03;14.40;;;27.50;93.00;;;28.28;55.73;94890.97;5045335;28;20462;-63
2022/07/28 07:41:00;;;;;;;17.80;14.40;;;27.60;92.80;;;28.42;55.77;94894.94;5045385;28;20973;-63
2022/07/28 07:43:27;;;;;;;16.00;13.57;;;27.80;92.60;;;28.48;55.12;94898.53;5045292;28;20467;-62
2022/07/28 07:45:55;;;;;;;22.90;14.80;;;27.80;92.10;;;28.55;55.27;94905.41;5041273;28;20987;-59
2022/07/28 07:48:23;;;;;;;25.40;13.67;;;27.80;92.00;;;28.60;54.89;94907.38;5045105;28;20513;-61
2022/07/28 07:50:51;;;;;;;22.87;16.03;;;27.90;91.70;;;28.71;54.75;94909.13;5045725;28;20475;-63
2022/07/28 07:53:18;;;;;;;14.00;12.50;;;28.00;91.70;;;28.77;54.38;94910.81;5045450;28;20459;-62
2022/07/28 07:55:45;;;;;;;17.27;13.03;;;28.10;91.40;;;28.85;53.47;94920.38;5045193;28;20499;-62
2022/07/28 07:58:13;;;;;;;13.13;11.93;;;28.20;91.00;;;28.89;53.67;94926.09;5045296;28;20455;-59
2022/07/28 08:00:40;;;;;;;16.73;14.40;;;28.20;90.20;;;28.84;52.43;94926.88;5043930;28;20513;-60
2022/07/28 08:03:07;;;;;;;22.67;13.20;;;28.20;88.10;;;28.81;52.74;94935.50;5047116;28;20827;-61
2022/07/28 08:05:36;;;;;;;16.63;13.00;;;28.20;89.50;;;28.76;52.84;94927.31;5048832;28;20960;-59
2022/07/28 08:08:04;;;;;;;16.20;13.83;;;28.20;88.60;;;28.70;52.50;94939.16;5049284;28;20526;-59
2022/07/28 08:10:32;;;;;;;15.13;13.60;;;28.10;88.70;;;28.64;53.11;94932.84;5047635;28;20451;-59
2022/07/28 08:12:59;;;;;;;14.17;12.70;;;28.00;88.80;;;28.63;52.47;94927.69;5047955;28;20469;-62
2022/07/28 08:15:26;;;;;;;14.20;12.60;;;27.90;88.70;;;28.65;52.41;94926.38;5044579;28;20971;-63
2022/07/28 08:17:54;;;;;;;18.00;12.77;;;28.00;88.50;;;28.69;52.46;94922.09;5045020;28;20462;-62
2022/07/28 08:20:21;;;;;;;15.50;13.23;;;28.00;88.50;;;28.71;52.89;94922.66;5048739;28;20465;-60
2022/07/28 08:22:50;;;;;;;12.90;11.67;;;28.10;87.70;;;28.67;51.91;94923.41;5048473;28;21373;-62
2022/07/28 08:25:18;;;;;;;16.20;14.53;;;28.00;87.50;;;28.56;52.11;94927.84;5048882;28;20483;-59
2022/07/28 08:27:46;;;;;;;18.93;12.97;;;28.00;87.40;;;28.47;52.10;94934.78;5048243;28;21006;-59
2022/07/28 08:30:14;;;;;;;15.50;13.80;;;27.80;87.10;;;28.37;52.78;94946.28;5048517;28;20462;-62
2022/07/28 08:32:42;;;;;;;15.53;13.40;;;27.80;87.30;;;28.32;52.96;94943.50;5047676;28;20824;-62
2022/07/28 08:35:09;;;;;;;15.53;13.93;;;27.80;88.00;;;28.29;52.54;94944.84;5048183;28;20512;-61
2022/07/28 08:37:38;;;;;;;14.73;13.10;;;27.70;87.80;;;28.28;53.26;94950.50;5048100;28;20495;-59
2022/07/28 08:40:13;;;;;;;17.20;12.77;;;27.70;87.80;;;28.26;52.12;94950.75;5048345;28;20448;-59
2022/07/28 08:42:49;;;;;;;15.90;12.30;;;27.60;87.20;;;28.24;52.30;94951.00;5045010;28;20860;-63
2022/07/28 08:45:16;;;;;;;14.67;12.03;;;27.60;86.70;;;28.25;52.08;94949.91;5046149;28;20435;-63
2022/07/28 08:47:44;;;;;;;16.10;14.03;;;27.60;86.70;;;28.33;52.31;94955.97;5047886;28;21015;-58
2022/07/28 08:50:12;;;;;;;17.67;14.03;;;27.70;86.20;;;28.50;52.41;94956.72;5048075;28;20520;-62
2022/07/28 08:52:39;;;;;;;15.17;13.70;;;27.80;86.30;;;28.74;51.81;94951.13;5048311;28;20850;-63
2022/07/28 08:55:09;;;;;;;15.53;13.73;;;28.00;86.50;;;28.93;51.88;94949.72;5047967;28;20517;-60
2022/07/28 08:57:37;;;;;;;13.77;12.40;;;28.20;85.90;;;29.07;51.19;94954.75;5048170;28;20495;-63
2022/07/28 09:00:07;;;;;;;15.13;13.53;;;28.30;85.30;;;29.09;51.02;94961.53;5047637;28;20864;-64
2022/07/28 09:02:34;;;;;;;15.53;13.00;;;28.40;84.10;;;29.02;50.46;94962.78;5046904;28;20481;-64
2022/07/28 09:05:02;;;;;;;15.60;11.93;;;28.40;83.40;;;28.88;50.30;94960.50;5048115;28;20448;-62
2022/07/28 09:07:29;;;;;;;16.63;13.47;;;28.30;83.60;;;28.76;50.79;94962.50;5047768;28;20540;-62
2022/07/28 09:09:56;;;;;;;12.23;11.00;;;28.20;82.20;;;28.62;50.45;94959.34;5047328;28;20915;-62
2022/07/28 09:12:25;;;;;;;18.83;13.60;;;28.10;81.10;;;28.56;50.37;94949.50;5047416;28;20475;-59
2022/07/28 09:14:52;;;;;;;15.37;11.77;;;28.00;82.00;;;28.53;51.25;94950.81;5047514;28;20451;-63
2022/07/28 09:17:19;;;;;;;16.17;12.90;;;27.90;82.40;;;28.59;50.84;94955.25;5044426;28;20857;-59
2022/07/28 09:19:47;;;;;;;14.87;13.07;;;27.90;82.90;;;28.67;51.33;94956.72;5047602;28;20508;-59
2022/07/28 09:22:14;;;;;;;17.17;13.83;;;28.00;83.10;;;28.75;51.39;94952.75;5047603;28;20569;-59
2022/07/28 09:24:43;;;;;;;16.43;12.97;;;28.10;83.40;;;28.81;50.85;94950.94;5047260;28;20451;-61
2022/07/28 09:27:12;;;;;;;17.10;13.80;;;28.10;83.30;;;28.81;51.16;94946.31;5047541;28;20470;-59
2022/07/28 09:29:44;;;;;;;22.93;14.77;;;28.20;82.80;;;28.77;51.43;94946.03;5047265;28;20577;-62
2022/07/28 09:32:13;;;;;;;21.90;15.20;;;28.20;83.00;;;28.72;51.75;94943.25;5042448;28;21092;-58
2022/07/28 09:34:41;;;;;;;16.50;14.80;;;28.10;83.30;;;28.65;51.19;94949.94;5047375;28;20486;-61
2022/07/28 09:37:16;;;;;;;19.90;14.93;;;28.00;83.40;;;28.54;51.94;94947.06;5047420;28;20578;-58
2022/07/28 09:39:43;;;;;;;18.73;14.37;;;28.00;84.60;;;28.49;52.10;94938.88;5047151;28;20439;-62
2022/07/28 09:42:11;;;;;;;16.47;14.77;;;27.80;84.50;;;28.49;52.46;94940.75;5046561;28;20499;-63
2022/07/28 09:44:38;;;;;;;17.77;15.70;;;27.80;85.10;;;28.52;51.93;94937.53;5042043;28;20473;-62
2022/07/28 09:47:24;;;;;;;16.47;12.47;;;27.80;85.00;;;28.58;51.37;94941.94;5047441;28;20914;-62
2022/07/28 09:49:51;;;;;;;15.63;12.67;;;27.90;84.60;;;28.64;51.65;94940.97;5043997;28;20578;-59
2022/07/28 09:52:28;;;;;;;14.17;12.87;;;28.00;84.10;;;28.74;51.52;94943.00;5047239;28;20467;-60
2022/07/28 09:55:00;;;;;;;15.53;13.17;;;28.10;83.30;;;28.85;50.75;94958.28;5047247;28;20457;-62
2022/07/28 09:57:28;;;;;;;17.43;12.20;;;28.20;82.70;;;28.98;50.96;94948.94;5046999;28;20944;-61
2022/07/28 09:59:55;;;;;;;24.23;16.43;;;28.30;81.70;;;29.21;50.45;94949.78;5047247;28;20461;-59
2022/07/28 10:02:28;;;;;;;18.13;12.73;;;28.50;80.90;;;29.52;49.61;94948.19;5046286;28;20467;-63
2022/07/28 10:04:55;;;;;;;18.47;14.57;;;28.80;80.20;;;29.85;49.36;94946.31;5047667;28;20458;-60
2022/07/28 10:07:22;;;;;;;18.17;14.40;;;29.10;79.30;;;30.02;49.21;94943.44;5047467;28;20968;-62
2022/07/28 10:09:57;;;;;;;17.70;14.30;;;29.30;78.60;;;30.29;48.16;94948.78;5046948;28;20474;-58
2022/07/28 10:12:25;;;;;;;19.67;13.90;;;29.50;77.80;;;30.50;47.86;94940.78;5046843;28;20474;-63
2022/07/28 10:14:53;;;;;;;15.20;13.67;;;29.70;76.70;;;30.63;47.74;94945.75;5046539;28;20461;-60
2022/07/28 10:17:32;;;;;;;14.40;12.40;;;29.90;75.30;;;30.71;46.82;94933.56;5043413;28;20694;-63